createdAt,value
2018-12-01T00:03:32.216Z,14.50
2018-12-01T00:08:35.702Z,17.63
2018-12-01T00:13:39.189Z,13.43
2018-12-01T00:18:42.704Z,16.43
2018-12-01T00:23:49.187Z,15.57
2018-12-01T00:28:49.777Z,10.70
2018-12-01T00:33:53.263Z,13.47
2018-12-01T00:38:56.796Z,16.87
2018-12-01T00:44:00.307Z,15.65
2018-12-01T00:49:03.884Z,12.60
2018-12-01T00:54:07.418Z,14.00
2018-12-01T00:59:10.911Z,11.70
2018-12-01T01:04:14.431Z,17.13
2018-12-01T01:09:17.994Z,12.80
2018-12-01T01:14:21.496Z,11.23
2018-12-01T01:19:25.782Z,19.40
2018-12-01T01:24:29.423Z,12.43
2018-12-01T01:29:33.913Z,8.73
2018-12-01T01:34:37.882Z,10.90
2018-12-01T01:39:41.604Z,11.43
2018-12-01T01:44:45.487Z,11.07
2018-12-01T01:49:49.230Z,11.37
2018-12-01T01:54:53.016Z,6.80
2018-12-01T01:59:56.519Z,8.40
2018-12-01T02:05:00.264Z,8.90
2018-12-01T02:10:03.999Z,10.13
2018-12-01T02:15:08.641Z,7.90
2018-12-01T02:20:17.109Z,10.97
2018-12-01T02:25:20.710Z,7.97
2018-12-01T02:30:24.238Z,6.17
2018-12-01T02:35:28.754Z,7.17
2018-12-01T02:40:32.703Z,9.03
2018-12-01T02:45:47.700Z,14.33
2018-12-01T02:50:51.222Z,10.20
2018-12-01T02:55:54.901Z,14.17
2018-12-01T03:00:58.787Z,10.70
2018-12-01T03:06:02.549Z,13.90
2018-12-01T03:11:06.513Z,14.45
2018-12-01T03:16:10.775Z,16.47
2018-12-01T03:21:14.770Z,10.20
2018-12-01T03:26:18.617Z,13.90
2018-12-01T03:31:22.228Z,14.13
2018-12-01T03:36:26.922Z,12.70
2018-12-01T03:41:30.449Z,10.73
2018-12-01T03:46:34.642Z,15.63
2018-12-01T03:51:38.583Z,13.97
2018-12-01T03:56:43.118Z,13.62
2018-12-01T04:01:47.782Z,11.13
2018-12-01T04:06:51.276Z,9.97
2018-12-01T04:11:54.779Z,16.90
2018-12-01T04:16:58.270Z,13.57
2018-12-01T04:22:02.068Z,15.83
2018-12-01T04:27:05.785Z,14.93
2018-12-01T04:32:09.792Z,9.23
2018-12-01T04:37:13.794Z,12.57
2018-12-01T04:42:17.699Z,6.50
2018-12-01T04:47:21.430Z,11.47
2018-12-01T04:52:26.206Z,5.50
2018-12-01T04:57:30.128Z,8.27
2018-12-01T05:02:34.376Z,13.40
2018-12-01T05:07:37.885Z,6.70
2018-12-01T05:12:41.471Z,6.53
2018-12-01T05:17:45.343Z,6.53
2018-12-01T05:22:49.311Z,10.77
2018-12-01T05:27:53.925Z,10.30
2018-12-01T05:32:58.211Z,7.23
2018-12-01T05:38:02.497Z,7.93
2018-12-01T05:43:06.450Z,8.63
2018-12-01T05:48:09.963Z,12.50
2018-12-01T05:53:13.476Z,6.70
2018-12-01T05:58:17.074Z,6.97
2018-12-01T06:03:20.578Z,7.47
2018-12-01T06:08:24.299Z,10.53
2018-12-01T06:13:28.998Z,10.33
2018-12-01T06:18:32.894Z,10.68
2018-12-01T06:23:37.499Z,9.17
2018-12-01T06:28:41.001Z,8.93
2018-12-01T06:33:44.659Z,13.55
2018-12-01T06:38:48.298Z,9.47
2018-12-01T06:43:52.528Z,13.23
2018-12-01T06:48:56.344Z,13.47
2018-12-01T06:54:00.260Z,19.20
2018-12-01T06:59:04.548Z,11.80
2018-12-01T07:04:08.510Z,9.40
2018-12-01T07:09:12.533Z,13.20
2018-12-01T07:14:16.126Z,9.67
2018-12-01T07:19:19.833Z,11.88
2018-12-01T07:24:23.316Z,9.87
2018-12-01T07:29:26.935Z,11.43
2018-12-01T07:34:31.195Z,10.00
2018-12-01T07:39:35.450Z,10.43
2018-12-01T07:44:40.232Z,10.53
2018-12-01T07:49:43.962Z,10.88
2018-12-01T07:54:47.706Z,9.53
2018-12-01T07:59:51.376Z,11.67
2018-12-01T08:04:55.235Z,14.97
2018-12-01T08:09:59.238Z,9.68
2018-12-01T08:15:02.955Z,9.47
2018-12-01T08:20:10.222Z,15.93
2018-12-01T08:25:17.994Z,39.67
2018-12-01T08:30:25.746Z,19.37
2018-12-01T08:35:31.036Z,15.90
2018-12-01T08:40:35.857Z,18.23
2018-12-01T08:45:39.963Z,12.90
2018-12-01T08:50:43.571Z,18.10
2018-12-01T08:55:47.205Z,18.13
2018-12-01T09:00:51.056Z,22.77
2018-12-01T09:05:54.705Z,17.23
2018-12-01T09:10:59.034Z,14.13
2018-12-01T09:16:03.225Z,13.77
2018-12-01T09:21:07.767Z,22.40
2018-12-01T09:26:12.194Z,17.70
2018-12-01T09:31:16.170Z,15.67
2018-12-01T09:36:19.955Z,16.50
2018-12-01T09:41:23.551Z,12.30
2018-12-01T09:46:27.203Z,15.30
2018-12-01T09:51:31.074Z,14.60
2018-12-01T09:56:34.792Z,14.37
2018-12-01T10:01:38.443Z,11.37
2018-12-01T10:06:42.342Z,14.10
2018-12-01T10:11:50.499Z,10.83
2018-12-01T10:16:50.515Z,12.83
2018-12-01T10:21:54.914Z,11.50
2018-12-01T10:26:59.041Z,9.90
2018-12-01T10:32:03.411Z,14.40
2018-12-01T10:37:06.955Z,8.13
2018-12-01T10:42:10.749Z,10.97
2018-12-01T10:47:14.514Z,14.67
2018-12-01T10:52:18.960Z,9.25
2018-12-01T10:57:24.260Z,9.97
2018-12-01T11:02:32.321Z,8.37
2018-12-01T11:07:36.517Z,7.90
2018-12-01T11:12:40.416Z,10.50
2018-12-01T11:17:44.352Z,10.13
2018-12-01T11:22:48.008Z,7.83
2018-12-01T11:27:52.431Z,7.20
2018-12-01T11:32:57.458Z,10.23
2018-12-01T11:38:01.461Z,6.70
2018-12-01T11:43:06.356Z,6.07
2018-12-01T11:48:10.608Z,7.15
2018-12-01T11:53:14.090Z,8.27
2018-12-01T11:58:17.643Z,6.23
2018-12-01T12:03:21.368Z,5.90
2018-12-01T12:08:26.114Z,3.67
2018-12-01T12:13:29.771Z,3.30
2018-12-01T12:18:33.408Z,7.57
2018-12-01T12:23:37.057Z,4.67
2018-12-01T12:28:40.786Z,3.90
2018-12-01T12:33:44.407Z,6.35
2018-12-01T12:38:47.919Z,3.47
2018-12-01T12:43:51.430Z,6.43
2018-12-01T12:48:55.045Z,3.40
2018-12-01T12:53:58.737Z,5.00
2018-12-01T12:59:03.047Z,3.40
2018-12-01T13:04:07.773Z,2.73
2018-12-01T13:09:11.562Z,5.53
2018-12-01T13:14:15.082Z,4.40
2018-12-01T13:19:18.620Z,4.47
2018-12-01T13:24:22.211Z,5.20
2018-12-01T13:29:27.691Z,5.97
2018-12-01T13:34:31.402Z,2.93
2018-12-01T13:39:35.124Z,5.40
2018-12-01T13:44:38.941Z,6.55
2018-12-01T13:49:42.557Z,8.90
2018-12-01T13:54:46.139Z,4.77
2018-12-01T13:59:49.692Z,4.10
2018-12-01T14:04:53.179Z,2.20
2018-12-01T14:09:57.315Z,7.57
2018-12-01T14:15:01.343Z,2.77
2018-12-01T14:20:05.551Z,3.70
2018-12-01T14:25:10.423Z,3.07
2018-12-01T14:30:15.066Z,2.45
2018-12-01T14:35:32.678Z,4.92
2018-12-01T14:40:37.170Z,3.77
2018-12-01T14:45:41.396Z,2.53
2018-12-01T14:50:48.626Z,2.60
2018-12-01T14:55:48.641Z,4.13
2018-12-01T15:00:52.370Z,4.40
2018-12-01T15:05:56.043Z,3.33
2018-12-01T15:10:59.661Z,5.00
2018-12-01T15:16:05.069Z,2.77
2018-12-01T15:21:08.659Z,2.77
2018-12-01T15:26:12.219Z,4.83
2018-12-01T15:31:15.738Z,3.93
2018-12-01T15:36:19.368Z,2.95
2018-12-01T15:41:23.025Z,2.33
2018-12-01T15:46:31.884Z,4.20
2018-12-01T15:51:35.633Z,4.40
2018-12-01T15:56:39.441Z,4.85
2018-12-01T16:01:43.500Z,2.80
2018-12-01T16:06:47.077Z,4.50
2018-12-01T16:11:50.747Z,4.10
2018-12-01T16:16:54.475Z,5.07
2018-12-01T16:21:58.197Z,4.80
2018-12-01T16:27:02.419Z,4.57
2018-12-01T16:32:06.602Z,6.20
2018-12-01T16:37:10.429Z,9.50
2018-12-01T16:42:14.061Z,5.57
2018-12-01T16:47:17.893Z,4.40
2018-12-01T16:52:21.575Z,4.87
2018-12-01T16:57:25.130Z,4.03
2018-12-01T17:02:28.664Z,5.23
2018-12-01T17:07:32.583Z,6.30
2018-12-01T17:12:36.388Z,8.57
2018-12-01T17:17:40.203Z,6.77
2018-12-01T17:22:45.057Z,7.22
2018-12-01T17:27:49.503Z,6.50
2018-12-01T17:32:53.976Z,7.80
2018-12-01T17:37:59.891Z,8.83
2018-12-01T17:43:03.972Z,4.87
2018-12-01T17:48:08.122Z,8.47
2018-12-01T17:53:12.010Z,6.53
2018-12-01T17:58:16.418Z,7.43
2018-12-01T18:03:22.107Z,9.87
2018-12-01T18:08:25.807Z,4.07
2018-12-01T18:13:29.602Z,6.27
2018-12-01T18:18:33.153Z,5.90
2018-12-01T18:23:36.664Z,6.37
2018-12-01T18:28:49.979Z,7.15
2018-12-01T18:34:01.822Z,7.07
2018-12-01T18:39:09.947Z,7.30
2018-12-01T18:44:13.561Z,7.87
2018-12-01T18:49:17.235Z,15.43
2018-12-01T18:54:21.389Z,10.00
2018-12-01T18:59:25.157Z,4.37
2018-12-01T19:04:29.188Z,5.77
2018-12-01T19:09:33.551Z,7.27
2018-12-01T19:14:37.089Z,5.93
2018-12-01T19:19:40.785Z,5.60
2018-12-01T19:24:45.836Z,4.83
2018-12-01T19:29:49.720Z,5.00
2018-12-01T19:34:53.591Z,5.53
2018-12-01T19:39:57.367Z,5.63
2018-12-01T19:45:24.046Z,5.07
2018-12-01T19:50:36.757Z,6.67
2018-12-01T19:55:40.951Z,6.10
2018-12-01T20:00:46.832Z,25.03
2018-12-01T20:05:50.808Z,20.40
2018-12-01T20:11:02.925Z,19.80
2018-12-01T20:16:26.640Z,23.92
2018-12-01T20:21:30.528Z,29.10
2018-12-01T20:26:34.141Z,29.77
2018-12-01T20:31:37.634Z,30.77
2018-12-01T20:36:49.370Z,28.30
2018-12-01T20:41:53.068Z,15.27
2018-12-01T20:46:57.203Z,11.33
2018-12-01T20:52:01.342Z,10.10
2018-12-01T20:57:41.200Z,12.43
2018-12-01T21:02:45.338Z,8.58
2018-12-01T21:07:49.131Z,12.55
2018-12-01T21:12:53.285Z,9.90
2018-12-01T21:17:57.005Z,12.00
2018-12-01T21:23:02.065Z,8.20
2018-12-01T21:28:06.682Z,9.40
2018-12-01T21:33:16.137Z,6.80
2018-12-01T21:38:20.070Z,11.83
2018-12-01T21:43:25.937Z,13.58
2018-12-01T21:48:29.678Z,16.30
2018-12-01T21:53:33.706Z,17.53
2018-12-01T21:58:37.904Z,17.77
2018-12-01T22:03:41.922Z,14.53
2018-12-01T22:08:45.588Z,11.07
2018-12-01T22:13:49.653Z,12.43
2018-12-01T22:18:53.515Z,8.35
2018-12-01T22:23:57.367Z,10.77
2018-12-01T22:29:01.504Z,7.40
2018-12-01T22:34:05.772Z,10.40
2018-12-01T22:39:11.023Z,6.60
2018-12-01T22:44:14.875Z,6.28
2018-12-01T22:49:19.249Z,6.80
2018-12-01T22:54:22.808Z,6.85
2018-12-01T22:59:26.312Z,7.57
2018-12-01T23:04:29.780Z,7.73
2018-12-01T23:09:33.503Z,6.03
2018-12-01T23:14:38.052Z,4.60
2018-12-01T23:19:41.729Z,4.93
2018-12-01T23:24:45.414Z,5.40
2018-12-01T23:29:49.177Z,4.07
2018-12-01T23:34:53.341Z,5.27
2018-12-01T23:39:56.410Z,2.65
2018-12-01T23:44:59.882Z,5.13
2018-12-01T23:50:04.188Z,6.67
2018-12-01T23:55:10.359Z,4.20
